aviador You're here:

KNFE Decoded Metar

in _UNIDENTIFIED
Report Time2017-12-16 23:56:00
UTC Time2017-12-17 00:34:09
Flight Rules vfr VFR
WindCalm
Visibility9999 m
Phenomena:N/A
Clouds:N/A
Expected CloudBase > 3,200 ft AGL from Temp-Dew spread
CeilingNone
Temp04°C (ISA -11)
Dew Point-4°C (56% RH)
AAT1.5°C
QNH1024 hPa
Density Alt-1,627 ft
Elevation13 ft
Report Wrong Elevation
Raw Report
KNFE 162356Z AUTO 00000KT 10SM CLR 04/M04 A3023 RMK AO2 SLP238
T00391044 10100 20028 53019=

Extra information for KNFE:More info

Metar Taf Metar & Taf Last 4 Metars F.Rules Stats Wind Profile Meteogram Temp Stats Metar ALERT Operation Metar Decoded Social comments